Spring Mountain Youth Camp, Nevada Weather observations

Data are for 60 minute period ending at time listed.
 Day   Time   Solar   Ave.   Ave.  Ave.  Vector  Max.   Baro.   Total    
  of    of     Rad.   Air    Rel.  Wind   Wind   Wind  Press.  Precip.   
Year   Day            Temp.  Hum.  Speed  Dir.   Gust                    
2017   (PST)  Kw/m2    F      %     mph   deg.    mph    mb.     in.     
-------------------------------------------------------------------------
 175   18:00   0.07   76.2    13    1.1   290     4.6   795.1    0.00 
 175   19:00   0.03   73.8    14    1.6   259     3.2   795.2    0.00 
 175   20:00   0.00   72.7    14    1.6   249     5.1   795.3    0.00 
 175   21:00   0.00   71.1    14    3.2   167    11.0   795.3    0.00 
 175   22:00   0.00   70.7    13    2.6   189    12.3   795.5    0.00 
 175   23:00   0.00   71.1    13    2.8   251     8.8   795.5    0.00 
 176    0:00   0.00   71.2    15    2.8   268     9.5   795.4    0.00 
 176    1:00   0.00   70.6    16    3.6   221    11.4   795.3    0.00 
 176    2:00   0.00   70.0    15    2.9    66     6.4   795.1    0.00 
 176    3:00   0.00   68.1    17    3.0    93    14.1   795.2    0.00 
 176    4:00   0.00   67.9    19    4.3   170    15.6   795.6    0.00 
 176    5:00   0.01   66.0    22    2.0   360     4.1   795.6    0.00 
 176    6:00   0.09   68.7    20    2.9    58     9.2   795.9    0.00 
 176    7:00   0.23   72.1    19    3.7   140     8.4   796.2    0.00 
 176    8:00   0.36   73.7    19    3.5   157    12.4   796.1    0.00 
 176    9:00   0.39   76.3    16    8.8   162    19.5   795.9    0.00 
 176   10:00   0.84   77.9    15    9.6   160    20.4   796.1    0.00 
 176   11:00   0.35   75.5    15    3.6   143    14.9   796.3    0.00 
 176   12:00   0.44   75.0    15    4.5    47    14.0   796.4    0.00 
 176   13:00   0.43   75.3    14    9.0   149    20.2   796.3    0.00 
 176   14:00   0.48   76.7    14   12.8   170    28.9   796.1    0.00 
 176   15:00   0.35   77.3    14   10.3   178    24.8   795.8    0.00 
 176   16:00   0.65   79.1    13   11.7   176    22.5   795.4    0.00 
 176   17:00   0.53   78.4    12   13.8   174    26.1   795.2    0.00 

Return to Spring Mountain Youth Camp graphs page.


Western Regional Climate Center,wrcc@dri.edu